Time;durP1;ratioP1;P1;durP2;ratioP2;P2;SDS_P1;SDS_P2;PMS_P1;PMS_P2;Temp;Humidity;BMP_temperature;BMP_pressure;BME280_temperature;BME280_humidity;BME280_pressure;Samples;Min_cycle;Max_cycle;Signal;HPM_P1;HPM_P2
2021/07/06 00:01:11;;;;;;;3.38;0.75;;;;;;;12.50;100.00;97925.91;5113050;28;20518;-51
2021/07/06 00:04:15;;;;;;;1.73;0.57;;;;;;;12.52;100.00;97922.56;5112766;28;20078;-51
2021/07/06 00:07:18;;;;;;;1.08;0.57;;;;;;;12.52;100.00;97912.16;5113028;28;20059;-51
2021/07/06 00:10:24;;;;;;;6.93;1.13;;;;;;;12.53;100.00;97907.31;5100073;28;20042;-51
2021/07/06 00:13:28;;;;;;;1.08;0.65;;;;;;;12.51;100.00;97898.75;5112477;28;20055;-50
2021/07/06 00:16:31;;;;;;;1.75;0.93;;;;;;;12.50;100.00;97883.25;5112179;28;20517;-51
2021/07/06 00:19:35;;;;;;;0.32;0.20;;;;;;;12.43;100.00;97870.69;5112595;28;20046;-51
2021/07/06 00:22:39;;;;;;;0.30;0.28;;;;;;;12.42;100.00;97868.44;5112626;28;20046;-51
2021/07/06 00:25:42;;;;;;;0.85;0.50;;;;;;;12.36;100.00;97860.19;5132230;27;20054;-51
2021/07/06 00:28:46;;;;;;;1.48;0.50;;;;;;;12.33;100.00;97855.66;5133022;27;20505;-50
2021/07/06 00:31:50;;;;;;;1.98;1.08;;;;;;;12.33;100.00;97850.09;5133047;27;20073;-51
2021/07/06 00:34:54;;;;;;;0.45;0.45;;;;;;;12.32;100.00;97837.44;5133118;27;20753;-51
2021/07/06 00:37:57;;;;;;;2.33;0.93;;;;;;;12.30;100.00;97833.66;5133146;27;20050;-50
2021/07/06 00:41:01;;;;;;;13.73;0.40;;;;;;;12.27;100.00;97823.56;5132752;27;20443;-50
2021/07/06 00:44:13;;;;;;;1.63;0.35;;;;;;;12.26;100.00;97810.91;5133146;27;20071;-50
2021/07/06 00:47:30;;;;;;;1.70;0.22;;;;;;;12.25;100.00;97804.56;5132654;27;20046;-50
2021/07/06 00:50:33;;;;;;;0.50;0.30;;;;;;;12.19;100.00;97790.72;5119606;27;20541;-49
2021/07/06 00:53:37;;;;;;;5.13;0.85;;;;;;;12.21;100.00;97789.44;5131647;27;20046;-50
2021/07/06 00:56:41;;;;;;;1.27;0.52;;;;;;;12.19;100.00;97779.56;5132965;27;20057;-50
2021/07/06 00:59:44;;;;;;;0.20;0.20;;;;;;;12.22;100.00;97776.97;5132591;27;20057;-50
2021/07/06 01:02:50;;;;;;;3.60;0.47;;;;;;;12.22;100.00;97760.22;5132480;27;20387;-51
2021/07/06 01:05:54;;;;;;;1.30;0.17;;;;;;;12.26;100.00;97753.03;5132266;27;20042;-51
2021/07/06 01:08:58;;;;;;;0.20;0.20;;;;;;;12.19;100.00;97743.28;5132860;27;20058;-51
2021/07/06 01:12:01;;;;;;;10.50;0.32;;;;;;;12.15;100.00;97740.06;5133835;27;20391;-50
2021/07/06 01:15:09;;;;;;;1.75;0.20;;;;;;;12.01;100.00;97730.22;5134058;27;20384;-51
2021/07/06 01:18:18;;;;;;;0.30;0.10;;;;;;;11.93;100.00;97715.38;5133835;27;20042;-51
2021/07/06 01:21:22;;;;;;;0.10;0.10;;;;;;;11.86;100.00;97713.25;5134063;27;20486;-50
2021/07/06 01:24:26;;;;;;;2.95;0.63;;;;;;;11.81;100.00;97705.75;5133927;27;20046;-50
2021/07/06 01:27:29;;;;;;;0.25;0.10;;;;;;;11.78;100.00;97698.44;5133654;27;20054;-50
2021/07/06 01:30:37;;;;;;;0.52;0.20;;;;;;;11.75;100.00;97691.16;5133209;27;20054;-50
2021/07/06 01:33:40;;;;;;;0.20;0.20;;;;;;;11.76;100.00;97684.28;5133593;27;20050;-50
2021/07/06 01:36:47;;;;;;;0.47;0.40;;;;;;;11.76;100.00;97681.50;5133278;27;20104;-50
2021/07/06 01:39:52;;;;;;;0.20;0.20;;;;;;;11.76;100.00;97675.91;5133260;28;20054;-50
2021/07/06 01:43:00;;;;;;;0.10;0.10;;;;;;;11.76;100.00;97678.72;5133538;28;20051;-49
2021/07/06 01:46:03;;;;;;;0.10;0.10;;;;;;;11.79;100.00;97679.69;5133771;28;20050;-50
2021/07/06 01:49:12;;;;;;;0.10;0.10;;;;;;;11.78;100.00;97678.19;5133767;28;20050;-51
2021/07/06 01:52:18;;;;;;;0.10;0.05;;;;;;;11.79;100.00;97674.09;5133951;28;20054;-51
2021/07/06 01:55:24;;;;;;;0.75;0.20;;;;;;;11.78;100.00;97662.19;5133424;28;20046;-51
2021/07/06 01:58:29;;;;;;;0.32;0.20;;;;;;;11.82;100.00;97668.22;5133541;28;20038;-52
2021/07/06 02:01:34;;;;;;;0.10;0.10;;;;;;;11.81;100.00;97644.41;5133470;28;20364;-52
2021/07/06 02:04:37;;;;;;;0.32;0.20;;;;;;;11.80;100.00;97650.50;5133451;28;20046;-52
2021/07/06 02:07:41;;;;;;;0.20;0.10;;;;;;;11.84;100.00;97662.84;5137226;27;20054;-52
2021/07/06 02:10:47;;;;;;;0.10;0.10;;;;;;;11.87;100.00;97647.81;5137834;27;20054;-51
2021/07/06 02:13:51;;;;;;;0.20;0.10;;;;;;;11.89;100.00;97645.22;5137695;27;20046;-51
2021/07/06 02:16:54;;;;;;;0.10;0.10;;;;;;;11.88;100.00;97643.75;5124557;27;20050;-51
2021/07/06 02:19:57;;;;;;;2.65;0.38;;;;;;;11.90;100.00;97641.16;5137395;27;20383;-51
2021/07/06 02:23:06;;;;;;;0.10;0.10;;;;;;;11.92;100.00;97641.38;5137467;27;20058;-51
2021/07/06 02:26:09;;;;;;;0.30;0.20;;;;;;;11.95;100.00;97637.50;5116727;28;20050;-51
2021/07/06 02:29:13;;;;;;;0.15;0.13;;;;;;;11.97;100.00;97632.16;5116801;28;20491;-52
2021/07/06 02:32:16;;;;;;;0.38;0.10;;;;;;;11.98;100.00;97619.69;5116469;28;20046;-51
2021/07/06 02:35:20;;;;;;;0.17;0.13;;;;;;;12.00;100.00;97617.13;5104000;28;20600;-51
2021/07/06 02:38:24;;;;;;;0.10;0.10;;;;;;;11.99;100.00;97612.84;5116247;28;20058;-51
2021/07/06 02:41:28;;;;;;;0.15;0.10;;;;;;;12.01;100.00;97610.25;5116433;28;20063;-51
2021/07/06 02:44:31;;;;;;;0.30;0.15;;;;;;;12.02;100.00;97614.53;5116139;28;20047;-51
2021/07/06 02:47:34;;;;;;;0.65;0.32;;;;;;;12.10;100.00;97609.81;5116138;28;20043;-51
2021/07/06 02:50:40;;;;;;;0.10;0.10;;;;;;;12.13;100.00;97603.13;5115739;28;20515;-51
2021/07/06 02:53:44;;;;;;;0.10;0.00;;;;;;;12.16;100.00;97598.53;5115641;28;20047;-52
2021/07/06 02:56:48;;;;;;;1.00;0.38;;;;;;;12.22;100.00;97592.81;5115583;28;20392;-52
2021/07/06 02:59:51;;;;;;;0.10;0.03;;;;;;;12.19;100.00;97583.50;5115876;28;20051;-52
2021/07/06 03:02:57;;;;;;;0.90;0.20;;;;;;;12.15;100.00;97585.84;5115761;28;20058;-52
2021/07/06 03:06:00;;;;;;;0.22;0.10;;;;;;;12.22;100.00;97576.06;5115414;28;20054;-52
2021/07/06 03:09:04;;;;;;;1.52;0.20;;;;;;;12.26;100.00;97576.50;5115693;28;20047;-52
2021/07/06 03:12:07;;;;;;;0.25;0.15;;;;;;;12.31;100.00;97559.63;5115808;28;20050;-51
2021/07/06 03:15:13;;;;;;;0.52;0.20;;;;;;;12.33;100.00;97553.47;5115767;28;20042;-51
2021/07/06 03:18:17;;;;;;;3.13;0.10;;;;;;;12.33;100.00;97545.88;5115124;28;20050;-51
2021/07/06 03:21:21;;;;;;;0.40;0.10;;;;;;;12.33;100.00;97547.91;5115454;28;20051;-51
2021/07/06 03:24:24;;;;;;;0.20;0.20;;;;;;;12.39;100.00;97545.75;5123994;27;20084;-51
2021/07/06 03:27:28;;;;;;;1.90;0.47;;;;;;;12.42;100.00;97527.91;5135996;27;20045;-52
2021/07/06 03:30:35;;;;;;;0.35;0.10;;;;;;;12.44;100.00;97530.88;5135799;27;20042;-52
2021/07/06 03:33:38;;;;;;;0.32;0.30;;;;;;;12.49;100.00;97550.31;5135672;27;20498;-52
2021/07/06 03:36:42;;;;;;;1.45;0.40;;;;;;;12.47;100.00;97536.16;5135381;27;20061;-52
2021/07/06 04:18:45;;;;;;;6.70;1.30;;;;;;;12.77;100.00;97535.66;6294688;22;1294219;-52
2021/07/06 04:21:48;;;;;;;1.15;1.08;;;;;;;12.87;100.00;97531.06;6357228;22;20042;-52
2021/07/06 04:24:52;;;;;;;1.27;0.63;;;;;;;12.82;100.00;97526.38;6357794;22;20338;-52
2021/07/06 04:27:55;;;;;;;3.42;0.77;;;;;;;12.78;100.00;97526.72;6357823;22;20025;-53
2021/07/06 04:30:59;;;;;;;2.03;0.15;;;;;;;12.79;100.00;97524.69;6357826;22;20022;-53
2021/07/06 04:34:03;;;;;;;0.80;0.50;;;;;;;12.77;100.00;97518.91;6357781;22;20022;-53
2021/07/06 04:37:07;;;;;;;0.70;0.40;;;;;;;12.76;100.00;97512.56;6357837;22;20018;-52
2021/07/06 04:40:11;;;;;;;5.32;0.55;;;;;;;12.78;100.00;97520.38;6357753;22;20020;-52
2021/07/06 04:43:14;;;;;;;2.25;0.68;;;;;;;12.79;100.00;97521.88;6357214;22;20026;-53
2021/07/06 04:46:18;;;;;;;0.60;0.60;;;;;;;12.82;100.00;97520.81;6357701;22;20509;-53
2021/07/06 04:49:21;;;;;;;0.90;0.40;;;;;;;12.85;100.00;97525.28;6357416;22;20563;-53
2021/07/06 04:52:25;;;;;;;0.28;0.28;;;;;;;12.91;100.00;97517.50;6357504;22;20021;-53
2021/07/06 04:55:29;;;;;;;0.95;0.52;;;;;;;12.93;100.00;97520.47;6357288;22;20021;-53
2021/07/06 04:58:35;;;;;;;1.88;0.57;;;;;;;12.95;100.00;97517.88;6357334;22;20022;-53
2021/07/06 05:01:39;;;;;;;0.22;0.22;;;;;;;12.97;100.00;97520.91;6357089;22;20025;-53
2021/07/06 05:04:42;;;;;;;0.40;0.40;;;;;;;12.97;100.00;97512.53;6357351;22;20073;-53
2021/07/06 05:07:46;;;;;;;1.00;0.68;;;;;;;12.95;100.00;97518.66;6357189;22;20064;-52
2021/07/06 05:10:50;;;;;;;1.40;0.30;;;;;;;12.93;100.00;97521.25;6357531;22;20469;-53
2021/07/06 05:13:54;;;;;;;4.18;0.40;;;;;;;12.92;100.00;97530.19;6357287;22;20026;-53
2021/07/06 05:16:57;;;;;;;1.13;0.38;;;;;;;12.91;100.00;97520.28;6355102;22;20311;-53
2021/07/06 05:20:01;;;;;;;1.95;0.35;;;;;;;12.94;100.00;97522.75;6350358;22;20029;-53
2021/07/06 05:23:05;;;;;;;0.55;0.40;;;;;;;12.96;100.00;97525.00;6349977;22;20018;-53
2021/07/06 05:26:08;;;;;;;0.17;0.17;;;;;;;12.98;100.00;97522.38;6350452;22;20041;-53
2021/07/06 05:29:12;;;;;;;0.15;0.15;;;;;;;13.04;100.00;97520.19;6350230;22;20453;-53
2021/07/06 05:32:19;;;;;;;0.10;0.10;;;;;;;13.09;100.00;97527.72;6350198;22;20021;-53
2021/07/06 05:35:23;;;;;;;0.22;0.22;;;;;;;13.17;100.00;97520.13;6350147;22;20025;-53
2021/07/06 05:38:27;;;;;;;0.20;0.10;;;;;;;13.31;100.00;97518.72;6330736;22;20022;-53
2021/07/06 05:41:32;;;;;;;0.17;0.17;;;;;;;13.42;100.00;97529.59;6349970;22;20022;-53
2021/07/06 05:44:39;;;;;;;0.17;0.17;;;;;;;13.47;100.00;97522.34;6349911;22;20030;-53
2021/07/06 05:47:42;;;;;;;0.20;0.10;;;;;;;13.50;100.00;97521.22;6350134;22;20026;-53
2021/07/06 05:50:47;;;;;;;0.35;0.30;;;;;;;13.54;100.00;97519.56;6350015;22;20026;-53
2021/07/06 05:53:50;;;;;;;0.10;0.10;;;;;;;13.55;100.00;97523.88;6349202;22;20025;-53
2021/07/06 05:56:54;;;;;;;5.55;0.57;;;;;;;13.72;100.00;97519.84;6350007;22;20018;-53
2021/07/06 06:00:03;;;;;;;0.13;0.10;;;;;;;13.86;100.00;97524.00;6350204;22;20030;-53
2021/07/06 06:03:09;;;;;;;0.30;0.20;;;;;;;13.71;100.00;97523.94;6350048;22;20018;-53
2021/07/06 06:06:13;;;;;;;0.52;0.15;;;;;;;13.59;100.00;97524.28;6349864;22;20022;-54
2021/07/06 06:09:16;;;;;;;0.35;0.10;;;;;;;13.38;100.00;97520.78;6349740;22;20044;-54
2021/07/06 06:12:21;;;;;;;0.10;0.10;;;;;;;13.20;100.00;97519.03;6349776;22;20018;-54
2021/07/06 06:15:25;;;;;;;0.90;0.45;;;;;;;13.19;100.00;97519.59;6349926;22;20327;-53
2021/07/06 06:18:28;;;;;;;0.32;0.25;;;;;;;13.23;100.00;97526.31;6340739;22;20033;-54
2021/07/06 06:21:32;;;;;;;1.33;0.30;;;;;;;13.24;100.00;97527.06;6348897;22;20022;-54
2021/07/06 06:24:36;;;;;;;0.10;0.10;;;;;;;13.23;100.00;97520.72;6348554;22;20029;-54
2021/07/06 06:27:40;;;;;;;0.20;0.20;;;;;;;13.21;100.00;97528.16;6347802;22;20026;-54
2021/07/06 06:30:43;;;;;;;3.60;0.50;;;;;;;13.23;100.00;97531.16;6348258;22;20018;-54
2021/07/06 06:33:47;;;;;;;0.25;0.20;;;;;;;13.17;100.00;97538.94;6349124;22;20021;-53
2021/07/06 06:36:50;;;;;;;1.27;0.30;;;;;;;13.18;100.00;97535.59;6348990;22;20025;-54
2021/07/06 06:39:54;;;;;;;0.45;0.28;;;;;;;13.13;100.00;97533.69;6349305;22;20026;-54
2021/07/06 06:42:57;;;;;;;0.85;0.20;;;;;;;13.13;100.00;97532.94;6349420;22;20026;-54
2021/07/06 06:46:01;;;;;;;0.65;0.20;;;;;;;13.10;100.00;97540.41;6349187;22;20041;-54
2021/07/06 06:49:05;;;;;;;0.95;0.25;;;;;;;13.16;100.00;97535.41;6330009;22;20038;-54
2021/07/06 06:52:09;;;;;;;0.73;0.20;;;;;;;13.27;100.00;97543.50;6349039;22;20036;-54
2021/07/06 06:55:13;;;;;;;0.50;0.30;;;;;;;13.26;100.00;97544.78;6348946;22;20025;-54
2021/07/06 06:58:17;;;;;;;0.50;0.30;;;;;;;13.22;100.00;97549.97;6348872;22;20022;-54
2021/07/06 07:01:20;;;;;;;0.73;0.32;;;;;;;13.17;100.00;97559.25;6348901;22;20017;-54
2021/07/06 07:04:24;;;;;;;0.40;0.40;;;;;;;13.09;100.00;97561.25;6330005;22;20022;-54
2021/07/06 07:07:28;;;;;;;1.00;0.63;;;;;;;13.05;100.00;97555.25;6329828;22;20343;-54
2021/07/06 07:10:32;;;;;;;3.78;0.77;;;;;;;13.01;100.00;97563.22;6349044;22;20026;-54
2021/07/06 07:13:36;;;;;;;2.10;0.45;;;;;;;12.98;100.00;97560.75;6348993;22;20025;-54
2021/07/06 07:16:39;;;;;;;3.13;0.50;;;;;;;12.92;100.00;97558.88;6348182;22;20045;-54
2021/07/06 07:19:42;;;;;;;1.73;0.47;;;;;;;12.90;100.00;97555.13;6349086;22;20021;-54
2021/07/06 07:22:46;;;;;;;0.93;0.68;;;;;;;12.92;100.00;97558.13;6329857;22;20025;-54
2021/07/06 07:25:49;;;;;;;1.73;1.00;;;;;;;13.05;100.00;97560.84;6349059;22;20021;-53
2021/07/06 07:28:53;;;;;;;1.15;0.50;;;;;;;13.11;100.00;97560.69;6348850;22;20025;-53
2021/07/06 07:31:56;;;;;;;1.80;0.57;;;;;;;13.07;100.00;97563.84;6348637;22;20022;-52
2021/07/06 07:35:00;;;;;;;3.45;1.23;;;;;;;13.15;100.00;97564.63;6348915;22;20018;-52
2021/07/06 07:38:03;;;;;;;1.63;0.80;;;;;;;13.13;100.00;97572.81;6349049;22;20018;-53
2021/07/06 07:41:07;;;;;;;1.58;0.80;;;;;;;13.12;100.00;97576.94;6348787;22;20021;-52
2021/07/06 07:44:11;;;;;;;1.23;0.30;;;;;;;13.10;100.00;97579.53;6348923;22;20592;-52
2021/07/06 07:47:14;;;;;;;2.17;0.80;;;;;;;13.20;100.00;97588.91;6348943;22;20045;-52
2021/07/06 07:50:18;;;;;;;0.63;0.63;;;;;;;13.38;100.00;97585.09;6329658;22;20026;-52
2021/07/06 07:53:21;;;;;;;1.05;0.45;;;;;;;13.71;100.00;97585.50;6348388;22;20449;-52
2021/07/06 07:56:24;;;;;;;1.25;0.40;;;;;;;14.06;100.00;97585.44;6348336;22;20025;-52
2021/07/06 07:59:29;;;;;;;0.38;0.38;;;;;;;13.90;100.00;97588.75;6348702;22;20015;-52
2021/07/06 08:02:33;;;;;;;1.45;0.90;;;;;;;13.79;100.00;97580.66;6348432;22;20041;-52
2021/07/06 08:05:36;;;;;;;2.55;0.75;;;;;;;13.78;100.00;97591.09;6348317;22;20527;-52
2021/07/06 08:08:40;;;;;;;0.77;0.20;;;;;;;13.80;100.00;97590.53;6347632;22;20042;-52
2021/07/06 08:11:43;;;;;;;1.90;0.40;;;;;;;13.87;100.00;97598.22;6348174;22;20442;-52
2021/07/06 08:14:48;;;;;;;0.52;0.30;;;;;;;14.01;100.00;97596.81;6348402;22;20018;-52
2021/07/06 08:17:51;;;;;;;2.60;0.30;;;;;;;14.06;100.00;97593.09;6342193;22;20073;-52
2021/07/06 08:20:55;;;;;;;0.73;0.60;;;;;;;14.10;100.00;97597.03;6347977;22;20022;-53
2021/07/06 08:24:01;;;;;;;0.45;0.13;;;;;;;14.20;100.00;97602.84;6347842;22;20021;-53
2021/07/06 08:27:04;;;;;;;0.98;0.60;;;;;;;14.33;100.00;97611.13;6348121;22;20037;-54
2021/07/06 08:30:09;;;;;;;2.10;0.38;;;;;;;14.42;100.00;97616.22;6348142;22;20022;-54
2021/07/06 08:33:13;;;;;;;0.95;0.30;;;;;;;14.58;100.00;97617.72;6348542;22;20029;-53
2021/07/06 08:36:16;;;;;;;0.95;0.22;;;;;;;14.75;100.00;97622.81;6329214;22;20018;-53
2021/07/06 08:39:20;;;;;;;0.65;0.45;;;;;;;14.61;100.00;97627.84;6348772;22;20034;-53
2021/07/06 08:42:24;;;;;;;1.05;0.63;;;;;;;14.29;100.00;97630.34;6348760;22;20029;-53
2021/07/06 08:45:28;;;;;;;1.63;0.93;;;;;;;14.14;100.00;97642.19;6348604;22;20026;-53
2021/07/06 08:48:34;;;;;;;6.93;1.05;;;;;;;14.23;100.00;97635.31;6348431;22;20022;-53
2021/07/06 08:51:40;;;;;;;5.95;1.98;;;;;;;14.20;100.00;97642.03;6348447;22;20026;-54
2021/07/06 08:54:45;;;;;;;8.68;0.98;;;;;;;14.15;100.00;97652.09;6350298;22;20446;-54
2021/07/06 08:57:52;;;;;;;4.20;1.42;;;;;;;14.14;100.00;97649.88;6350612;22;20017;-54
2021/07/06 09:00:55;;;;;;;3.42;1.05;;;;;;;14.13;100.00;97659.53;6350818;22;20021;-54
2021/07/06 09:04:02;;;;;;;1.10;1.00;;;;;;;13.90;100.00;97658.69;6350554;22;20042;-54
2021/07/06 09:07:05;;;;;;;4.07;1.45;;;;;;;13.75;100.00;97664.97;6349787;22;20463;-54
2021/07/06 09:10:13;;;;;;;2.67;0.63;;;;;;;13.77;100.00;97664.41;6350273;22;20021;-54
2021/07/06 09:13:32;;;;;;;2.40;0.95;;;;;;;13.95;100.00;97671.75;6349976;22;20021;-54
2021/07/06 09:16:36;;;;;;;4.13;1.33;;;;;;;13.96;100.00;97676.06;6349133;22;20026;-54
2021/07/06 09:19:45;;;;;;;1.20;0.65;;;;;;;13.86;100.00;97680.69;6349803;22;20022;-54
2021/07/06 09:22:48;;;;;;;2.08;0.80;;;;;;;13.86;100.00;97692.59;6349607;22;20018;-54
2021/07/06 09:26:34;;;;;;;0.50;0.43;;;;;;;13.71;100.00;97697.38;6349235;22;20029;-54
2021/07/06 09:30:02;;;;;;;0.50;0.40;;;;;;;13.58;100.00;97701.75;6349537;22;20041;-54
2021/07/06 09:33:06;;;;;;;8.02;0.70;;;;;;;13.50;100.00;97703.75;6350202;22;20030;-54
2021/07/06 09:36:09;;;;;;;2.28;0.88;;;;;;;13.56;100.00;97711.97;6350115;22;20025;-54
2021/07/06 09:39:26;;;;;;;0.40;0.35;;;;;;;13.73;100.00;97734.66;6349916;22;20018;-54
2021/07/06 09:42:29;;;;;;;0.60;0.40;;;;;;;13.94;100.00;97734.63;6349088;22;20026;-55
2021/07/06 09:45:32;;;;;;;2.40;0.80;;;;;;;14.25;100.00;97739.13;6350188;22;20022;-55
2021/07/06 09:48:43;;;;;;;1.55;0.47;;;;;;;14.21;100.00;97744.31;6349683;22;20066;-55
2021/07/06 09:51:49;;;;;;;2.80;1.48;;;;;;;14.11;100.00;97757.31;6349468;22;20022;-55
2021/07/06 09:54:57;;;;;;;3.08;0.50;;;;;;;14.39;100.00;97777.69;6349981;22;20037;-55
2021/07/06 09:58:04;;;;;;;1.55;0.28;;;;;;;14.67;100.00;97774.06;6349846;22;20017;-55
2021/07/06 10:01:08;;;;;;;1.38;0.52;;;;;;;15.03;100.00;97785.97;6349482;22;20025;-55
2021/07/06 10:04:11;;;;;;;0.57;0.30;;;;;;;15.14;100.00;97799.66;6349664;22;20026;-55
2021/07/06 10:07:15;;;;;;;5.63;0.90;;;;;;;14.94;100.00;97789.31;6349814;22;20327;-55
2021/07/06 10:10:19;;;;;;;0.75;0.50;;;;;;;14.83;100.00;97805.72;6349719;22;20022;-55
2021/07/06 10:13:23;;;;;;;2.53;0.80;;;;;;;14.71;100.00;97818.53;6349406;22;20025;-55
2021/07/06 10:16:27;;;;;;;5.30;0.70;;;;;;;15.01;100.00;97827.84;6349756;22;20026;-55
2021/07/06 10:19:33;;;;;;;1.35;0.70;;;;;;;15.17;100.00;97842.66;6349599;22;20619;-55
2021/07/06 10:22:37;;;;;;;1.35;0.40;;;;;;;15.11;100.00;97851.25;6349225;22;20025;-55
2021/07/06 10:25:42;;;;;;;1.45;0.52;;;;;;;15.15;100.00;97857.25;6348733;22;20474;-55
2021/07/06 10:28:51;;;;;;;0.85;0.20;;;;;;;15.25;100.00;97867.91;6348678;22;20331;-55
2021/07/06 10:31:54;;;;;;;1.58;0.40;;;;;;;15.17;100.00;97874.25;6349242;22;20017;-55
2021/07/06 10:34:57;;;;;;;0.80;0.70;;;;;;;15.27;100.00;97884.97;6349723;22;20025;-54
2021/07/06 10:38:26;;;;;;;1.23;0.70;;;;;;;15.39;100.00;97877.69;6349814;22;20021;-54
2021/07/06 10:41:36;;;;;;;0.40;0.35;;;;;;;15.46;100.00;97886.19;6349619;22;20030;-55
2021/07/06 10:44:42;;;;;;;0.73;0.30;;;;;;;15.40;100.00;97888.34;6349096;22;20029;-54
2021/07/06 10:47:53;;;;;;;1.73;0.40;;;;;;;15.09;100.00;97893.09;6349629;22;20026;-54
2021/07/06 10:50:56;;;;;;;3.13;0.17;;;;;;;14.76;100.00;97899.66;6349492;22;20029;-54
2021/07/06 10:54:11;;;;;;;2.90;0.55;;;;;;;14.46;100.00;97910.66;6349117;22;20021;-52
2021/07/06 10:57:23;;;;;;;9.10;1.88;;;;;;;14.15;100.00;97925.69;6349265;22;20358;-51
2021/07/06 11:00:44;;;;;;;2.50;0.70;;;;;;;13.86;100.00;97933.22;6349237;22;20021;-51
2021/07/06 11:03:47;;;;;;;3.60;0.93;;;;;;;13.71;100.00;97940.75;6349432;22;20042;-51
2021/07/06 11:06:53;;;;;;;6.88;0.88;;;;;;;13.56;100.00;97944.09;6349350;22;20332;-52
2021/07/06 11:09:56;;;;;;;2.05;0.75;;;;;;;13.50;100.00;97960.25;6349038;22;20026;-51
2021/07/06 11:13:15;;;;;;;10.43;0.85;;;;;;;13.59;100.00;97960.56;6349120;22;20022;-52
2021/07/06 11:16:38;;;;;;;4.30;0.98;;;;;;;13.81;100.00;97969.75;6348587;22;20026;-52
2021/07/06 11:19:43;;;;;;;1.88;0.50;;;;;;;13.85;100.00;97975.75;6347826;22;20494;-52
2021/07/06 11:22:54;;;;;;;2.83;0.60;;;;;;;14.05;100.00;97984.19;6348269;22;20022;-52
2021/07/06 11:26:04;;;;;;;3.85;0.85;;;;;;;14.22;100.00;97986.59;6349166;22;20462;-52
2021/07/06 11:29:07;;;;;;;2.63;0.98;;;;;;;14.39;100.00;97984.16;6349048;22;20022;-52
2021/07/06 11:32:18;;;;;;;9.82;1.02;;;;;;;14.78;100.00;97980.34;6348260;22;20030;-52
2021/07/06 11:35:21;;;;;;;4.10;1.38;;;;;;;15.10;100.00;97980.75;6348388;22;20037;-52
2021/07/06 11:38:28;;;;;;;5.80;0.65;;;;;;;15.40;100.00;97983.72;6348383;22;20021;-52
2021/07/06 11:41:31;;;;;;;2.42;0.82;;;;;;;15.80;100.00;97986.91;6348757;22;20358;-53
2021/07/06 11:44:35;;;;;;;1.40;0.73;;;;;;;16.25;100.00;97992.63;6348003;22;20026;-52
2021/07/06 11:47:38;;;;;;;1.42;0.70;;;;;;;16.62;100.00;97991.19;6348628;22;20022;-53
2021/07/06 11:50:44;;;;;;;1.77;0.70;;;;;;;16.57;100.00;97992.88;6348388;22;20026;-53
2021/07/06 11:54:02;;;;;;;5.78;1.02;;;;;;;16.70;100.00;97999.63;6348387;22;20343;-53
2021/07/06 11:57:08;;;;;;;1.60;0.65;;;;;;;16.44;100.00;97998.66;6348576;22;20045;-54
2021/07/06 12:00:12;;;;;;;2.03;0.90;;;;;;;15.89;100.00;98008.84;6348379;22;20038;-54
2021/07/06 12:03:26;;;;;;;1.20;0.57;;;;;;;15.47;100.00;98016.72;6348356;22;20030;-53
2021/07/06 12:06:31;;;;;;;8.63;0.95;;;;;;;15.13;100.00;98027.31;6348195;22;20028;-53
2021/07/06 12:09:36;;;;;;;11.77;1.45;;;;;;;15.32;100.00;98035.47;6347660;22;20030;-54
2021/07/06 12:12:40;;;;;;;1.20;0.38;;;;;;;15.46;100.00;98026.44;6348660;22;20021;-53
2021/07/06 12:15:45;;;;;;;2.15;0.85;;;;;;;15.26;100.00;98046.09;6348870;22;20026;-53
2021/07/06 12:19:01;;;;;;;2.47;0.45;;;;;;;14.83;100.00;98050.28;6338461;22;20022;-54
2021/07/06 12:22:05;;;;;;;1.67;0.63;;;;;;;14.54;100.00;98059.16;6348077;22;20085;-53
2021/07/06 12:25:10;;;;;;;5.15;0.77;;;;;;;14.36;100.00;98063.66;6347729;22;20026;-53
2021/07/06 12:28:14;;;;;;;0.80;0.55;;;;;;;14.43;100.00;98074.19;6348432;22;20021;-53
2021/07/06 12:31:34;;;;;;;2.60;0.40;;;;;;;14.64;100.00;98086.16;6347641;22;20029;-53
2021/07/06 12:34:53;;;;;;;1.77;0.90;;;;;;;14.90;100.00;98086.00;6350173;22;20017;-54
2021/07/06 12:38:03;;;;;;;1.40;0.35;;;;;;;14.82;100.00;98101.25;6350685;22;20030;-54
2021/07/06 12:41:17;;;;;;;0.98;0.77;;;;;;;14.80;100.00;98113.03;6330696;22;20025;-54
2021/07/06 12:44:37;;;;;;;0.70;0.45;;;;;;;14.67;100.00;98121.50;6349721;22;20026;-54
2021/07/06 12:47:42;;;;;;;1.85;0.57;;;;;;;14.67;100.00;98115.88;6349912;22;20025;-54
2021/07/06 12:50:47;;;;;;;4.85;1.08;;;;;;;14.53;100.00;98117.22;6350127;22;20021;-54
2021/07/06 12:53:58;;;;;;;0.30;0.30;;;;;;;14.33;100.00;98131.97;6350201;22;20021;-53
2021/07/06 12:57:03;;;;;;;0.77;0.45;;;;;;;14.21;100.00;98133.47;6350421;22;20026;-55
2021/07/06 13:00:13;;;;;;;5.07;0.70;;;;;;;14.14;100.00;98142.53;6350774;22;20037;-54
2021/07/06 13:03:19;;;;;;;0.80;0.45;;;;;;;14.30;100.00;98147.03;6350429;22;20474;-54
2021/07/06 13:06:23;;;;;;;0.45;0.20;;;;;;;14.52;100.00;98152.16;6350293;22;20021;-54
2021/07/06 13:09:27;;;;;;;2.72;0.52;;;;;;;14.75;100.00;98144.72;6349991;22;20045;-54
2021/07/06 13:12:30;;;;;;;0.57;0.47;;;;;;;14.85;100.00;98147.81;6349894;22;20333;-55
2021/07/06 13:15:44;;;;;;;0.85;0.40;;;;;;;14.85;100.00;98153.44;6350265;22;20422;-54
2021/07/06 13:18:48;;;;;;;0.73;0.65;;;;;;;14.93;100.00;98149.41;6339613;22;20022;-55
2021/07/06 13:21:52;;;;;;;0.60;0.47;;;;;;;14.90;100.00;98156.09;6350025;22;20025;-55
2021/07/06 13:24:58;;;;;;;0.77;0.25;;;;;;;14.73;100.00;98166.19;6350136;22;20112;-54
2021/07/06 13:28:03;;;;;;;0.20;0.20;;;;;;;14.53;100.00;98178.84;6350203;22;20026;-54
2021/07/06 13:31:07;;;;;;;0.60;0.47;;;;;;;15.28;100.00;98175.31;6350376;22;20025;-54
2021/07/06 13:34:11;;;;;;;1.55;0.47;;;;;;;16.12;100.00;98174.59;6350079;22;20021;-54
2021/07/06 13:37:14;;;;;;;1.27;0.70;;;;;;;16.68;100.00;98163.97;6350132;22;20022;-54
2021/07/06 13:40:18;;;;;;;0.80;0.50;;;;;;;17.42;100.00;98169.50;6330499;22;20022;-54
2021/07/06 13:43:23;;;;;;;0.45;0.10;;;;;;;18.12;100.00;98169.59;6349669;22;20042;-54
2021/07/06 13:46:26;;;;;;;2.38;1.00;;;;;;;18.05;100.00;98154.22;6349958;22;20339;-54
2021/07/06 13:49:30;;;;;;;0.35;0.10;;;;;;;17.65;100.00;98163.88;6349445;22;20026;-55
2021/07/06 13:52:34;;;;;;;0.63;0.40;;;;;;;17.17;100.00;98158.03;6349002;22;20021;-55
2021/07/06 13:55:38;;;;;;;0.52;0.17;;;;;;;16.76;100.00;98163.25;6349358;22;20022;-55
2021/07/06 13:58:42;;;;;;;2.00;0.57;;;;;;;16.44;100.00;98167.22;6348976;22;20025;-54
2021/07/06 14:01:45;;;;;;;0.75;0.43;;;;;;;17.21;100.00;98172.50;6349618;22;20025;-54
2021/07/06 14:04:49;;;;;;;0.85;0.40;;;;;;;17.59;100.00;98169.69;6330503;22;20025;-54
2021/07/06 14:07:53;;;;;;;1.17;0.47;;;;;;;18.00;100.00;98163.63;6349386;22;20025;-54
2021/07/06 14:10:57;;;;;;;0.52;0.28;;;;;;;18.07;100.00;98168.47;6349608;22;20045;-55
2021/07/06 14:14:00;;;;;;;0.85;0.35;;;;;;;18.19;100.00;98161.09;6349559;22;20021;-55
2021/07/06 14:17:06;;;;;;;2.88;0.28;;;;;;;18.12;100.00;98158.34;6347012;22;20026;-54
2021/07/06 14:20:12;;;;;;;1.38;0.35;;;;;;;17.52;100.00;98164.81;6347314;22;20072;-55
2021/07/06 14:23:17;;;;;;;0.65;0.40;;;;;;;16.88;100.00;98181.25;6347990;22;20030;-55
2021/07/06 14:26:21;;;;;;;0.38;0.20;;;;;;;16.71;100.00;98183.84;6346389;22;20343;-54
2021/07/06 14:29:24;;;;;;;0.70;0.70;;;;;;;16.49;100.00;98193.66;6345784;22;20022;-54
2021/07/06 14:32:28;;;;;;;1.40;0.50;;;;;;;16.74;100.00;98185.53;6341587;22;20025;-55
2021/07/06 14:35:31;;;;;;;0.95;0.52;;;;;;;16.92;100.00;98188.00;6344697;22;20021;-55
2021/07/06 14:38:35;;;;;;;1.33;0.85;;;;;;;16.91;100.00;98185.78;6348546;22;20022;-54
2021/07/06 14:41:38;;;;;;;5.05;0.28;;;;;;;17.08;100.00;98185.97;6349018;22;20042;-54
2021/07/06 14:44:42;;;;;;;1.88;0.13;;;;;;;17.12;100.00;98186.34;6348595;22;20339;-54
2021/07/06 14:47:45;;;;;;;1.95;0.20;;;;;;;17.25;100.00;98186.19;6349442;22;20026;-54
2021/07/06 14:50:48;;;;;;;6.80;0.40;;;;;;;17.41;100.00;98184.91;6348950;22;20021;-54
2021/07/06 14:53:52;;;;;;;1.05;0.38;;;;;;;17.68;100.00;98193.72;6349291;22;20335;-54
2021/07/06 14:56:56;;;;;;;1.60;0.38;;;;;;;17.96;100.00;98188.59;6349162;22;20505;-54
2021/07/06 14:59:59;;;;;;;1.40;0.38;;;;;;;18.07;100.00;98188.22;6349295;22;20018;-54